Sauce Viejo, Argentina
Current Conditions -  °F | °C
As of 5:00 AM on Wednesday 26 Nov 2014 (Local Time) from SAAR Reporting Station
Broken Clouds Broken Clouds  
Wind Chill: 61°   Ceiling: 10000
Heat Index: 61°   Visibility: 6mi
Dew Point: 55°   Wind: 0mph
Humidity: 82%   Direction: NA
Pressure: 29.94"   Gusts: NA
Location:  31.77°S, 60.83°W
Report Text: SAAR 260800Z 00000KT 9999 FEW035 BKN10016/13 Q1014
Loading
Personal Weather Stations






























Interactive Weather Map New forecast layout! Learn more

10-Day Weather Forecast

Advertisements
Track Severe Weather on mobile